sensor_id;sensor_type;location;lat;lon;timestamp;temperature;humidity
20319;DHT22;10317;47.254;11.314;2024-03-08T00:02:00;3.30;99.90
20319;DHT22;10317;47.254;11.314;2024-03-08T00:04:25;3.30;99.90
20319;DHT22;10317;47.254;11.314;2024-03-08T00:06:51;3.30;99.90
20319;DHT22;10317;47.254;11.314;2024-03-08T00:09:17;3.20;99.90
20319;DHT22;10317;47.254;11.314;2024-03-08T00:11:43;3.20;99.90
20319;DHT22;10317;47.254;11.314;2024-03-08T00:14:09;3.10;99.90
20319;DHT22;10317;47.254;11.314;2024-03-08T00:16:35;3.00;99.90
20319;DHT22;10317;47.254;11.314;2024-03-08T00:19:03;2.90;99.90
20319;DHT22;10317;47.254;11.314;2024-03-08T00:21:29;2.90;99.90
20319;DHT22;10317;47.254;11.314;2024-03-08T00:23:55;2.80;99.90
20319;DHT22;10317;47.254;11.314;2024-03-08T00:26:21;2.80;99.90
20319;DHT22;10317;47.254;11.314;2024-03-08T00:28:48;2.80;99.90
20319;DHT22;10317;47.254;11.314;2024-03-08T00:31:14;2.70;99.90
20319;DHT22;10317;47.254;11.314;2024-03-08T00:33:42;2.70;99.90
20319;DHT22;10317;47.254;11.314;2024-03-08T00:36:08;2.60;99.90
20319;DHT22;10317;47.254;11.314;2024-03-08T00:38:34;2.60;99.90
20319;DHT22;10317;47.254;11.314;2024-03-08T00:41:00;2.50;99.90
20319;DHT22;10317;47.254;11.314;2024-03-08T00:43:25;2.60;99.90
20319;DHT22;10317;47.254;11.314;2024-03-08T00:45:51;2.50;99.90
20319;DHT22;10317;47.254;11.314;2024-03-08T00:48:17;2.50;99.90
20319;DHT22;10317;47.254;11.314;2024-03-08T00:50:43;2.50;99.90
20319;DHT22;10317;47.254;11.314;2024-03-08T00:53:11;2.40;99.90
20319;DHT22;10317;47.254;11.314;2024-03-08T00:55:37;2.40;99.90
20319;DHT22;10317;47.254;11.314;2024-03-08T00:58:04;2.30;99.90
20319;DHT22;10317;47.254;11.314;2024-03-08T01:00:29;2.30;99.90
20319;DHT22;10317;47.254;11.314;2024-03-08T01:02:55;2.30;99.90
20319;DHT22;10317;47.254;11.314;2024-03-08T01:05:21;2.20;99.90
20319;DHT22;10317;47.254;11.314;2024-03-08T01:07:48;2.10;99.90
20319;DHT22;10317;47.254;11.314;2024-03-08T01:10:15;2.10;99.90
20319;DHT22;10317;47.254;11.314;2024-03-08T01:12:41;2.10;99.90
20319;DHT22;10317;47.254;11.314;2024-03-08T01:15:09;2.00;99.90
20319;DHT22;10317;47.254;11.314;2024-03-08T01:17:35;2.00;99.90
20319;DHT22;10317;47.254;11.314;2024-03-08T01:20:02;2.00;99.90
20319;DHT22;10317;47.254;11.314;2024-03-08T01:22:28;1.90;99.90
20319;DHT22;10317;47.254;11.314;2024-03-08T01:24:55;1.90;99.90
20319;DHT22;10317;47.254;11.314;2024-03-08T01:27:21;1.90;99.90
20319;DHT22;10317;47.254;11.314;2024-03-08T01:29:47;1.90;99.90
20319;DHT22;10317;47.254;11.314;2024-03-08T01:32:13;1.90;99.90
20319;DHT22;10317;47.254;11.314;2024-03-08T01:34:39;1.90;99.90
20319;DHT22;10317;47.254;11.314;2024-03-08T01:37:04;1.80;99.90
20319;DHT22;10317;47.254;11.314;2024-03-08T01:39:30;1.70;99.90
20319;DHT22;10317;47.254;11.314;2024-03-08T01:41:57;1.80;99.90
20319;DHT22;10317;47.254;11.314;2024-03-08T01:44:23;1.70;99.90
20319;DHT22;10317;47.254;11.314;2024-03-08T01:46:50;1.70;99.90
20319;DHT22;10317;47.254;11.314;2024-03-08T01:49:18;1.60;99.90
20319;DHT22;10317;47.254;11.314;2024-03-08T01:51:47;1.60;99.90
20319;DHT22;10317;47.254;11.314;2024-03-08T01:54:15;1.50;99.90
20319;DHT22;10317;47.254;11.314;2024-03-08T01:56:41;1.50;99.90
20319;DHT22;10317;47.254;11.314;2024-03-08T01:59:07;1.50;99.90
20319;DHT22;10317;47.254;11.314;2024-03-08T02:01:33;1.50;99.90
20319;DHT22;10317;47.254;11.314;2024-03-08T02:03:59;1.50;99.90
20319;DHT22;10317;47.254;11.314;2024-03-08T02:06:25;1.40;99.90
20319;DHT22;10317;47.254;11.314;2024-03-08T02:08:51;1.40;99.90
20319;DHT22;10317;47.254;11.314;2024-03-08T02:11:17;1.40;99.90
20319;DHT22;10317;47.254;11.314;2024-03-08T02:13:44;1.40;99.90
20319;DHT22;10317;47.254;11.314;2024-03-08T02:16:10;1.30;99.90
20319;DHT22;10317;47.254;11.314;2024-03-08T02:18:36;1.30;99.90
20319;DHT22;10317;47.254;11.314;2024-03-08T02:21:03;1.30;99.90
20319;DHT22;10317;47.254;11.314;2024-03-08T02:23:29;1.30;99.90
20319;DHT22;10317;47.254;11.314;2024-03-08T02:25:56;1.30;99.90
20319;DHT22;10317;47.254;11.314;2024-03-08T02:28:23;1.20;99.90
20319;DHT22;10317;47.254;11.314;2024-03-08T02:30:50;1.20;99.90
20319;DHT22;10317;47.254;11.314;2024-03-08T02:33:22;1.20;99.90
20319;DHT22;10317;47.254;11.314;2024-03-08T02:35:48;1.20;99.90
20319;DHT22;10317;47.254;11.314;2024-03-08T02:38:15;1.20;99.90
20319;DHT22;10317;47.254;11.314;2024-03-08T02:40:42;1.20;99.90
20319;DHT22;10317;47.254;11.314;2024-03-08T02:43:09;1.10;99.90
20319;DHT22;10317;47.254;11.314;2024-03-08T02:45:35;1.10;99.90
20319;DHT22;10317;47.254;11.314;2024-03-08T02:48:01;1.00;99.90
20319;DHT22;10317;47.254;11.314;2024-03-08T02:50:26;1.00;99.90
20319;DHT22;10317;47.254;11.314;2024-03-08T02:52:52;1.00;99.90
20319;DHT22;10317;47.254;11.314;2024-03-08T02:55:18;1.00;99.90
20319;DHT22;10317;47.254;11.314;2024-03-08T02:57:44;1.00;99.90
20319;DHT22;10317;47.254;11.314;2024-03-08T03:00:10;1.00;99.90
20319;DHT22;10317;47.254;11.314;2024-03-08T03:02:36;1.00;99.90
20319;DHT22;10317;47.254;11.314;2024-03-08T03:05:03;1.00;99.90
20319;DHT22;10317;47.254;11.314;2024-03-08T03:07:32;1.00;99.90
20319;DHT22;10317;47.254;11.314;2024-03-08T03:09:59;1.00;99.90
20319;DHT22;10317;47.254;11.314;2024-03-08T03:12:29;1.00;99.90
20319;DHT22;10317;47.254;11.314;2024-03-08T03:14:55;0.90;99.90
20319;DHT22;10317;47.254;11.314;2024-03-08T03:17:25;0.90;99.90
20319;DHT22;10317;47.254;11.314;2024-03-08T03:19:51;0.90;99.90
20319;DHT22;10317;47.254;11.314;2024-03-08T03:22:17;0.90;99.90
20319;DHT22;10317;47.254;11.314;2024-03-08T03:24:44;0.90;99.90
20319;DHT22;10317;47.254;11.314;2024-03-08T03:27:12;0.90;99.90
20319;DHT22;10317;47.254;11.314;2024-03-08T03:29:42;0.90;99.90
20319;DHT22;10317;47.254;11.314;2024-03-08T03:32:11;0.90;99.90
20319;DHT22;10317;47.254;11.314;2024-03-08T03:34:38;0.90;99.90
20319;DHT22;10317;47.254;11.314;2024-03-08T03:37:04;0.90;99.90
20319;DHT22;10317;47.254;11.314;2024-03-08T03:39:31;0.80;99.90
20319;DHT22;10317;47.254;11.314;2024-03-08T03:42:00;0.80;99.90
20319;DHT22;10317;47.254;11.314;2024-03-08T03:44:28;0.80;99.90
20319;DHT22;10317;47.254;11.314;2024-03-08T03:46:54;0.80;99.90
20319;DHT22;10317;47.254;11.314;2024-03-08T03:49:19;0.70;99.90
20319;DHT22;10317;47.254;11.314;2024-03-08T03:51:45;0.70;99.90
20319;DHT22;10317;47.254;11.314;2024-03-08T03:54:12;0.70;99.90
20319;DHT22;10317;47.254;11.314;2024-03-08T03:56:38;0.60;99.90
20319;DHT22;10317;47.254;11.314;2024-03-08T03:59:05;0.60;99.90
20319;DHT22;10317;47.254;11.314;2024-03-08T04:01:32;0.60;99.90
20319;DHT22;10317;47.254;11.314;2024-03-08T04:03:58;0.60;99.90
20319;DHT22;10317;47.254;11.314;2024-03-08T04:06:23;0.70;99.90
20319;DHT22;10317;47.254;11.314;2024-03-08T04:08:49;0.60;99.90
20319;DHT22;10317;47.254;11.314;2024-03-08T04:11:15;0.60;99.90
20319;DHT22;10317;47.254;11.314;2024-03-08T04:13:43;0.60;99.90
20319;DHT22;10317;47.254;11.314;2024-03-08T04:16:09;0.60;99.90
20319;DHT22;10317;47.254;11.314;2024-03-08T04:18:36;0.50;99.90
20319;DHT22;10317;47.254;11.314;2024-03-08T04:21:04;0.50;99.90
20319;DHT22;10317;47.254;11.314;2024-03-08T04:23:34;0.50;99.90
20319;DHT22;10317;47.254;11.314;2024-03-08T04:26:04;0.50;99.90
20319;DHT22;10317;47.254;11.314;2024-03-08T04:28:32;0.50;99.90
20319;DHT22;10317;47.254;11.314;2024-03-08T04:30:58;0.40;99.90
20319;DHT22;10317;47.254;11.314;2024-03-08T04:33:26;0.40;99.90
20319;DHT22;10317;47.254;11.314;2024-03-08T04:35:52;0.40;99.90
20319;DHT22;10317;47.254;11.314;2024-03-08T04:38:17;0.40;99.90
20319;DHT22;10317;47.254;11.314;2024-03-08T04:40:43;0.40;99.90
20319;DHT22;10317;47.254;11.314;2024-03-08T04:43:09;0.40;99.90
20319;DHT22;10317;47.254;11.314;2024-03-08T04:45:36;0.40;99.90
20319;DHT22;10317;47.254;11.314;2024-03-08T04:48:02;0.40;99.90
20319;DHT22;10317;47.254;11.314;2024-03-08T04:50:28;0.40;99.90
20319;DHT22;10317;47.254;11.314;2024-03-08T04:52:55;0.30;99.90
20319;DHT22;10317;47.254;11.314;2024-03-08T04:55:20;0.30;99.90
20319;DHT22;10317;47.254;11.314;2024-03-08T04:57:47;0.30;99.90
20319;DHT22;10317;47.254;11.314;2024-03-08T05:00:13;0.30;99.90
20319;DHT22;10317;47.254;11.314;2024-03-08T05:02:41;0.40;99.90
20319;DHT22;10317;47.254;11.314;2024-03-08T05:05:07;0.30;99.90
20319;DHT22;10317;47.254;11.314;2024-03-08T05:07:34;0.30;99.90
20319;DHT22;10317;47.254;11.314;2024-03-08T05:10:00;0.30;99.90
20319;DHT22;10317;47.254;11.314;2024-03-08T05:12:27;0.20;99.90
20319;DHT22;10317;47.254;11.314;2024-03-08T05:14:53;0.20;99.90
20319;DHT22;10317;47.254;11.314;2024-03-08T05:17:19;0.20;99.90
20319;DHT22;10317;47.254;11.314;2024-03-08T05:19:45;0.20;99.90
20319;DHT22;10317;47.254;11.314;2024-03-08T05:22:10;0.20;99.90
20319;DHT22;10317;47.254;11.314;2024-03-08T05:24:36;0.20;99.90
20319;DHT22;10317;47.254;11.314;2024-03-08T05:27:02;0.20;99.90
20319;DHT22;10317;47.254;11.314;2024-03-08T05:29:29;0.20;99.90
20319;DHT22;10317;47.254;11.314;2024-03-08T05:31:55;0.30;99.90
20319;DHT22;10317;47.254;11.314;2024-03-08T05:34:22;0.30;99.90
20319;DHT22;10317;47.254;11.314;2024-03-08T05:36:48;0.40;99.90
20319;DHT22;10317;47.254;11.314;2024-03-08T05:39:19;0.30;99.90
20319;DHT22;10317;47.254;11.314;2024-03-08T05:41:48;0.40;99.90
20319;DHT22;10317;47.254;11.314;2024-03-08T05:44:13;0.40;99.90
20319;DHT22;10317;47.254;11.314;2024-03-08T05:46:39;0.40;99.90
20319;DHT22;10317;47.254;11.314;2024-03-08T05:49:06;0.40;99.90
20319;DHT22;10317;47.254;11.314;2024-03-08T05:51:36;0.40;99.90
20319;DHT22;10317;47.254;11.314;2024-03-08T05:54:02;0.40;99.90
20319;DHT22;10317;47.254;11.314;2024-03-08T05:56:29;0.50;99.90
20319;DHT22;10317;47.254;11.314;2024-03-08T05:58:55;0.50;99.90
20319;DHT22;10317;47.254;11.314;2024-03-08T06:01:20;0.40;99.90
20319;DHT22;10317;47.254;11.314;2024-03-08T06:03:47;0.40;99.90
20319;DHT22;10317;47.254;11.314;2024-03-08T06:06:14;0.50;99.90
20319;DHT22;10317;47.254;11.314;2024-03-08T06:08:41;0.50;99.90
20319;DHT22;10317;47.254;11.314;2024-03-08T06:11:09;0.60;99.90
20319;DHT22;10317;47.254;11.314;2024-03-08T06:13:35;0.60;99.90
20319;DHT22;10317;47.254;11.314;2024-03-08T06:16:04;0.60;99.90
20319;DHT22;10317;47.254;11.314;2024-03-08T06:18:30;0.70;99.90
20319;DHT22;10317;47.254;11.314;2024-03-08T06:20:56;0.70;99.90
20319;DHT22;10317;47.254;11.314;2024-03-08T06:23:22;0.80;99.90
20319;DHT22;10317;47.254;11.314;2024-03-08T06:25:48;1.00;99.90
20319;DHT22;10317;47.254;11.314;2024-03-08T06:28:14;1.10;99.90
20319;DHT22;10317;47.254;11.314;2024-03-08T06:30:40;1.30;99.90
20319;DHT22;10317;47.254;11.314;2024-03-08T06:33:06;1.50;99.90
20319;DHT22;10317;47.254;11.314;2024-03-08T06:35:32;1.60;99.90
20319;DHT22;10317;47.254;11.314;2024-03-08T06:38:01;1.70;99.90
20319;DHT22;10317;47.254;11.314;2024-03-08T06:40:26;1.80;99.90
20319;DHT22;10317;47.254;11.314;2024-03-08T06:42:52;1.90;99.90
20319;DHT22;10317;47.254;11.314;2024-03-08T06:45:18;2.00;99.90
20319;DHT22;10317;47.254;11.314;2024-03-08T06:47:47;2.10;99.90
20319;DHT22;10317;47.254;11.314;2024-03-08T06:50:13;2.10;99.90
20319;DHT22;10317;47.254;11.314;2024-03-08T06:52:40;2.10;99.90
20319;DHT22;10317;47.254;11.314;2024-03-08T06:55:08;2.10;99.90
20319;DHT22;10317;47.254;11.314;2024-03-08T06:57:40;2.30;99.90
20319;DHT22;10317;47.254;11.314;2024-03-08T07:00:08;2.70;99.90
20319;DHT22;10317;47.254;11.314;2024-03-08T07:02:40;3.00;99.90
20319;DHT22;10317;47.254;11.314;2024-03-08T07:05:07;3.20;99.90
20319;DHT22;10317;47.254;11.314;2024-03-08T07:07:36;3.20;99.90
20319;DHT22;10317;47.254;11.314;2024-03-08T07:10:02;3.30;99.90
20319;DHT22;10317;47.254;11.314;2024-03-08T07:12:28;3.60;99.90
20319;DHT22;10317;47.254;11.314;2024-03-08T07:14:54;4.20;99.90
20319;DHT22;10317;47.254;11.314;2024-03-08T07:17:20;4.70;99.90
20319;DHT22;10317;47.254;11.314;2024-03-08T07:19:45;5.30;99.90
20319;DHT22;10317;47.254;11.314;2024-03-08T07:22:11;5.40;99.90
20319;DHT22;10317;47.254;11.314;2024-03-08T07:24:37;5.40;99.90
20319;DHT22;10317;47.254;11.314;2024-03-08T07:27:05;5.30;99.90
20319;DHT22;10317;47.254;11.314;2024-03-08T07:29:34;5.20;99.90
20319;DHT22;10317;47.254;11.314;2024-03-08T07:32:00;5.20;99.90
20319;DHT22;10317;47.254;11.314;2024-03-08T07:34:26;5.30;99.90
20319;DHT22;10317;47.254;11.314;2024-03-08T07:36:52;5.50;99.90
20319;DHT22;10317;47.254;11.314;2024-03-08T07:39:17;5.70;99.90
20319;DHT22;10317;47.254;11.314;2024-03-08T07:41:44;5.70;99.90
20319;DHT22;10317;47.254;11.314;2024-03-08T07:44:10;5.80;99.90
20319;DHT22;10317;47.254;11.314;2024-03-08T07:46:35;5.80;99.90
20319;DHT22;10317;47.254;11.314;2024-03-08T07:49:02;5.90;99.90
20319;DHT22;10317;47.254;11.314;2024-03-08T07:51:28;6.10;99.90
20319;DHT22;10317;47.254;11.314;2024-03-08T07:53:54;6.30;99.90
20319;DHT22;10317;47.254;11.314;2024-03-08T07:56:20;6.70;99.90
20319;DHT22;10317;47.254;11.314;2024-03-08T07:58:47;8.00;99.90
20319;DHT22;10317;47.254;11.314;2024-03-08T08:01:17;10.30;97.00
20319;DHT22;10317;47.254;11.314;2024-03-08T08:03:43;12.90;92.70
20319;DHT22;10317;47.254;11.314;2024-03-08T08:06:09;15.60;90.90
20319;DHT22;10317;47.254;11.314;2024-03-08T08:08:35;17.80;81.30
20319;DHT22;10317;47.254;11.314;2024-03-08T08:11:02;20.00;75.20
20319;DHT22;10317;47.254;11.314;2024-03-08T08:13:28;21.50;62.30
20319;DHT22;10317;47.254;11.314;2024-03-08T08:15:57;22.50;57.60
20319;DHT22;10317;47.254;11.314;2024-03-08T08:18:23;23.90;58.00
20319;DHT22;10317;47.254;11.314;2024-03-08T08:20:51;25.40;51.50
20319;DHT22;10317;47.254;11.314;2024-03-08T08:23:18;26.60;46.50
20319;DHT22;10317;47.254;11.314;2024-03-08T08:25:45;27.60;45.60
20319;DHT22;10317;47.254;11.314;2024-03-08T08:28:11;28.40;43.20
20319;DHT22;10317;47.254;11.314;2024-03-08T08:30:38;29.40;41.50
20319;DHT22;10317;47.254;11.314;2024-03-08T08:33:04;29.80;40.00
20319;DHT22;10317;47.254;11.314;2024-03-08T08:35:31;30.40;39.30
20319;DHT22;10317;47.254;11.314;2024-03-08T08:37:58;31.40;36.40
20319;DHT22;10317;47.254;11.314;2024-03-08T08:40:24;31.80;36.20
20319;DHT22;10317;47.254;11.314;2024-03-08T08:42:51;31.70;32.50
20319;DHT22;10317;47.254;11.314;2024-03-08T08:45:18;31.80;32.70
20319;DHT22;10317;47.254;11.314;2024-03-08T08:47:44;32.00;34.50
20319;DHT22;10317;47.254;11.314;2024-03-08T08:50:11;32.40;34.10
20319;DHT22;10317;47.254;11.314;2024-03-08T08:52:40;32.90;32.70
20319;DHT22;10317;47.254;11.314;2024-03-08T08:55:06;33.40;31.30
20319;DHT22;10317;47.254;11.314;2024-03-08T08:57:32;33.70;31.80
20319;DHT22;10317;47.254;11.314;2024-03-08T09:00:01;34.20;29.50
20319;DHT22;10317;47.254;11.314;2024-03-08T09:02:27;34.50;29.60
20319;DHT22;10317;47.254;11.314;2024-03-08T09:04:53;34.50;30.10
20319;DHT22;10317;47.254;11.314;2024-03-08T09:07:18;35.00;29.30
20319;DHT22;10317;47.254;11.314;2024-03-08T09:09:44;35.40;28.90
20319;DHT22;10317;47.254;11.314;2024-03-08T09:12:10;35.60;29.20
20319;DHT22;10317;47.254;11.314;2024-03-08T09:14:40;35.80;28.80
20319;DHT22;10317;47.254;11.314;2024-03-08T09:17:06;35.80;28.70
20319;DHT22;10317;47.254;11.314;2024-03-08T09:19:35;36.10;28.30
20319;DHT22;10317;47.254;11.314;2024-03-08T09:22:00;36.30;28.20
20319;DHT22;10317;47.254;11.314;2024-03-08T09:24:26;36.40;28.00
20319;DHT22;10317;47.254;11.314;2024-03-08T09:26:52;36.60;27.80
20319;DHT22;10317;47.254;11.314;2024-03-08T09:29:17;36.90;27.70
20319;DHT22;10317;47.254;11.314;2024-03-08T09:31:43;37.10;28.10
20319;DHT22;10317;47.254;11.314;2024-03-08T09:34:11;37.00;26.90
20319;DHT22;10317;47.254;11.314;2024-03-08T09:36:37;36.50;27.40
20319;DHT22;10317;47.254;11.314;2024-03-08T09:39:02;36.90;28.00
20319;DHT22;10317;47.254;11.314;2024-03-08T09:41:29;37.50;27.40
20319;DHT22;10317;47.254;11.314;2024-03-08T09:43:56;37.50;27.10
20319;DHT22;10317;47.254;11.314;2024-03-08T09:46:25;37.60;27.20
20319;DHT22;10317;47.254;11.314;2024-03-08T09:48:53;37.40;27.10
20319;DHT22;10317;47.254;11.314;2024-03-08T09:51:22;37.30;27.30
20319;DHT22;10317;47.254;11.314;2024-03-08T09:53:51;37.50;27.10
20319;DHT22;10317;47.254;11.314;2024-03-08T09:56:19;37.60;27.40
20319;DHT22;10317;47.254;11.314;2024-03-08T09:58:45;37.40;26.70
20319;DHT22;10317;47.254;11.314;2024-03-08T10:01:31;36.70;26.50
20319;DHT22;10317;47.254;11.314;2024-03-08T10:03:58;36.60;26.50
20319;DHT22;10317;47.254;11.314;2024-03-08T10:06:23;37.20;26.90
20319;DHT22;10317;47.254;11.314;2024-03-08T10:08:50;37.20;26.80
20319;DHT22;10317;47.254;11.314;2024-03-08T10:11:19;37.30;26.10
20319;DHT22;10317;47.254;11.314;2024-03-08T10:13:47;37.30;26.60
20319;DHT22;10317;47.254;11.314;2024-03-08T10:16:13;37.60;26.70
20319;DHT22;10317;47.254;11.314;2024-03-08T10:18:39;37.80;26.50
20319;DHT22;10317;47.254;11.314;2024-03-08T10:21:08;37.50;26.50
20319;DHT22;10317;47.254;11.314;2024-03-08T10:23:36;37.80;26.30
20319;DHT22;10317;47.254;11.314;2024-03-08T10:26:20;37.70;26.20
20319;DHT22;10317;47.254;11.314;2024-03-08T10:28:48;37.50;26.90
20319;DHT22;10317;47.254;11.314;2024-03-08T10:31:15;37.70;26.50
20319;DHT22;10317;47.254;11.314;2024-03-08T10:33:41;37.80;26.10
20319;DHT22;10317;47.254;11.314;2024-03-08T10:36:08;37.60;26.30
20319;DHT22;10317;47.254;11.314;2024-03-08T10:38:41;37.10;26.50
20319;DHT22;10317;47.254;11.314;2024-03-08T10:41:09;37.30;26.70
20319;DHT22;10317;47.254;11.314;2024-03-08T10:49:38;37.80;26.50
20319;DHT22;10317;47.254;11.314;2024-03-08T10:52:06;37.90;26.10
20319;DHT22;10317;47.254;11.314;2024-03-08T10:54:37;37.10;25.60
20319;DHT22;10317;47.254;11.314;2024-03-08T10:57:06;36.90;26.40
20319;DHT22;10317;47.254;11.314;2024-03-08T10:59:34;36.90;26.70
20319;DHT22;10317;47.254;11.314;2024-03-08T11:02:01;36.60;26.60
20319;DHT22;10317;47.254;11.314;2024-03-08T11:04:26;36.60;26.70
20319;DHT22;10317;47.254;11.314;2024-03-08T11:07:02;36.80;26.20
20319;DHT22;10317;47.254;11.314;2024-03-08T11:09:35;36.10;26.60
20319;DHT22;10317;47.254;11.314;2024-03-08T11:12:28;35.70;27.00
20319;DHT22;10317;47.254;11.314;2024-03-08T11:15:09;35.90;27.40
20319;DHT22;10317;47.254;11.314;2024-03-08T11:17:44;36.40;26.60
20319;DHT22;10317;47.254;11.314;2024-03-08T11:20:12;36.00;27.40
20319;DHT22;10317;47.254;11.314;2024-03-08T11:22:51;35.20;27.70
20319;DHT22;10317;47.254;11.314;2024-03-08T11:25:37;34.20;27.40
20319;DHT22;10317;47.254;11.314;2024-03-08T11:28:21;33.10;27.20
20319;DHT22;10317;47.254;11.314;2024-03-08T11:33:35;30.50;28.20
20319;DHT22;10317;47.254;11.314;2024-03-08T11:36:11;30.10;28.10
20319;DHT22;10317;47.254;11.314;2024-03-08T11:38:45;29.40;27.90
20319;DHT22;10317;47.254;11.314;2024-03-08T11:41:18;28.40;29.00
20319;DHT22;10317;47.254;11.314;2024-03-08T11:43:45;27.20;29.00
20319;DHT22;10317;47.254;11.314;2024-03-08T11:46:12;26.70;30.20
20319;DHT22;10317;47.254;11.314;2024-03-08T11:48:39;26.30;29.60
20319;DHT22;10317;47.254;11.314;2024-03-08T11:51:10;25.70;30.20
20319;DHT22;10317;47.254;11.314;2024-03-08T11:53:37;25.20;30.60
20319;DHT22;10317;47.254;11.314;2024-03-08T11:56:13;25.10;32.00
20319;DHT22;10317;47.254;11.314;2024-03-08T11:58:40;25.20;31.80
20319;DHT22;10317;47.254;11.314;2024-03-08T12:01:07;25.20;31.40
20319;DHT22;10317;47.254;11.314;2024-03-08T12:03:40;25.00;31.70
20319;DHT22;10317;47.254;11.314;2024-03-08T12:06:08;24.90;31.50
20319;DHT22;10317;47.254;11.314;2024-03-08T12:08:35;25.10;31.70
20319;DHT22;10317;47.254;11.314;2024-03-08T12:11:01;25.10;31.40
20319;DHT22;10317;47.254;11.314;2024-03-08T12:13:31;24.90;31.10
20319;DHT22;10317;47.254;11.314;2024-03-08T12:16:02;24.90;30.80
20319;DHT22;10317;47.254;11.314;2024-03-08T12:18:33;24.80;32.00
20319;DHT22;10317;47.254;11.314;2024-03-08T12:21:07;24.90;31.00
20319;DHT22;10317;47.254;11.314;2024-03-08T12:23:37;24.40;31.10
20319;DHT22;10317;47.254;11.314;2024-03-08T12:26:18;24.40;31.30
20319;DHT22;10317;47.254;11.314;2024-03-08T12:28:48;24.10;32.40
20319;DHT22;10317;47.254;11.314;2024-03-08T12:31:18;24.30;32.50
20319;DHT22;10317;47.254;11.314;2024-03-08T12:33:53;24.30;33.40
20319;DHT22;10317;47.254;11.314;2024-03-08T12:36:21;24.70;32.70
20319;DHT22;10317;47.254;11.314;2024-03-08T12:38:47;24.80;32.50
20319;DHT22;10317;47.254;11.314;2024-03-08T12:41:19;25.00;32.60
20319;DHT22;10317;47.254;11.314;2024-03-08T12:43:45;24.80;32.70
20319;DHT22;10317;47.254;11.314;2024-03-08T12:46:18;25.00;32.70
20319;DHT22;10317;47.254;11.314;2024-03-08T12:48:48;25.00;32.70
20319;DHT22;10317;47.254;11.314;2024-03-08T12:51:14;24.70;31.90
20319;DHT22;10317;47.254;11.314;2024-03-08T12:53:41;24.50;32.90
20319;DHT22;10317;47.254;11.314;2024-03-08T12:56:10;24.50;33.40
20319;DHT22;10317;47.254;11.314;2024-03-08T12:58:36;24.60;33.70
20319;DHT22;10317;47.254;11.314;2024-03-08T13:01:04;24.60;33.90
20319;DHT22;10317;47.254;11.314;2024-03-08T13:03:35;24.60;33.10
20319;DHT22;10317;47.254;11.314;2024-03-08T13:06:05;24.50;33.20
20319;DHT22;10317;47.254;11.314;2024-03-08T13:08:37;24.30;33.40
20319;DHT22;10317;47.254;11.314;2024-03-08T13:11:07;23.90;33.40
20319;DHT22;10317;47.254;11.314;2024-03-08T13:13:33;23.60;34.30
20319;DHT22;10317;47.254;11.314;2024-03-08T13:16:02;23.50;34.10
20319;DHT22;10317;47.254;11.314;2024-03-08T13:18:28;23.50;34.00
20319;DHT22;10317;47.254;11.314;2024-03-08T13:20:54;23.40;34.00
20319;DHT22;10317;47.254;11.314;2024-03-08T13:23:20;23.30;34.20
20319;DHT22;10317;47.254;11.314;2024-03-08T13:25:46;23.00;34.00
20319;DHT22;10317;47.254;11.314;2024-03-08T13:28:15;22.90;33.60
20319;DHT22;10317;47.254;11.314;2024-03-08T13:30:41;22.70;34.30
20319;DHT22;10317;47.254;11.314;2024-03-08T13:33:07;22.70;34.10
20319;DHT22;10317;47.254;11.314;2024-03-08T13:35:33;22.70;34.10
20319;DHT22;10317;47.254;11.314;2024-03-08T13:38:00;22.80;35.10
20319;DHT22;10317;47.254;11.314;2024-03-08T13:40:28;22.90;33.00
20319;DHT22;10317;47.254;11.314;2024-03-08T13:42:54;22.70;34.70
20319;DHT22;10317;47.254;11.314;2024-03-08T13:45:19;22.70;34.50
20319;DHT22;10317;47.254;11.314;2024-03-08T13:47:49;22.60;34.70
20319;DHT22;10317;47.254;11.314;2024-03-08T13:50:17;22.40;34.60
20319;DHT22;10317;47.254;11.314;2024-03-08T13:52:50;22.20;34.80
20319;DHT22;10317;47.254;11.314;2024-03-08T13:55:18;22.10;35.10
20319;DHT22;10317;47.254;11.314;2024-03-08T13:57:43;22.20;35.00
20319;DHT22;10317;47.254;11.314;2024-03-08T14:00:11;22.00;35.30
20319;DHT22;10317;47.254;11.314;2024-03-08T14:02:38;21.90;34.60
20319;DHT22;10317;47.254;11.314;2024-03-08T14:05:07;21.90;35.10
20319;DHT22;10317;47.254;11.314;2024-03-08T14:07:35;21.80;35.50
20319;DHT22;10317;47.254;11.314;2024-03-08T14:10:00;21.80;35.70
20319;DHT22;10317;47.254;11.314;2024-03-08T14:12:26;21.60;34.30
20319;DHT22;10317;47.254;11.314;2024-03-08T14:14:55;21.50;35.40
20319;DHT22;10317;47.254;11.314;2024-03-08T14:17:25;21.50;35.60
20319;DHT22;10317;47.254;11.314;2024-03-08T14:19:52;21.50;34.90
20319;DHT22;10317;47.254;11.314;2024-03-08T14:22:18;21.30;35.60
20319;DHT22;10317;47.254;11.314;2024-03-08T14:24:45;21.30;35.40
20319;DHT22;10317;47.254;11.314;2024-03-08T14:27:11;21.30;36.00
20319;DHT22;10317;47.254;11.314;2024-03-08T14:29:38;21.40;35.50
20319;DHT22;10317;47.254;11.314;2024-03-08T14:32:05;21.40;35.70
20319;DHT22;10317;47.254;11.314;2024-03-08T14:34:32;21.10;35.40
20319;DHT22;10317;47.254;11.314;2024-03-08T14:36:59;21.10;35.60
20319;DHT22;10317;47.254;11.314;2024-03-08T14:39:25;21.40;36.00
20319;DHT22;10317;47.254;11.314;2024-03-08T14:41:55;21.60;35.60
20319;DHT22;10317;47.254;11.314;2024-03-08T14:44:21;21.90;35.20
20319;DHT22;10317;47.254;11.314;2024-03-08T14:46:57;22.00;34.60
20319;DHT22;10317;47.254;11.314;2024-03-08T14:49:23;21.80;35.00
20319;DHT22;10317;47.254;11.314;2024-03-08T14:51:49;21.70;35.00
20319;DHT22;10317;47.254;11.314;2024-03-08T14:54:15;21.40;35.20
20319;DHT22;10317;47.254;11.314;2024-03-08T14:56:40;21.00;35.60
20319;DHT22;10317;47.254;11.314;2024-03-08T14:59:09;20.70;35.20
20319;DHT22;10317;47.254;11.314;2024-03-08T15:01:35;20.30;35.20
20319;DHT22;10317;47.254;11.314;2024-03-08T15:04:04;20.00;35.60
20319;DHT22;10317;47.254;11.314;2024-03-08T15:06:40;19.50;37.00
20319;DHT22;10317;47.254;11.314;2024-03-08T15:09:08;19.30;36.90
20319;DHT22;10317;47.254;11.314;2024-03-08T15:11:41;19.10;37.30
20319;DHT22;10317;47.254;11.314;2024-03-08T15:14:08;18.90;37.80
20319;DHT22;10317;47.254;11.314;2024-03-08T15:16:43;18.50;38.10
20319;DHT22;10317;47.254;11.314;2024-03-08T15:19:09;18.30;38.00
20319;DHT22;10317;47.254;11.314;2024-03-08T15:21:37;17.80;37.90
20319;DHT22;10317;47.254;11.314;2024-03-08T15:24:03;17.40;39.50
20319;DHT22;10317;47.254;11.314;2024-03-08T15:26:30;17.10;39.70
20319;DHT22;10317;47.254;11.314;2024-03-08T15:28:57;16.90;39.80
20319;DHT22;10317;47.254;11.314;2024-03-08T15:31:23;16.70;40.10
20319;DHT22;10317;47.254;11.314;2024-03-08T15:33:50;16.50;40.80